Terminal Aerodrome Forecast
Issued by NWS

Home | Current Version | Previous Version | Text Only | Print | Product List | Glossary On
Versions: 1 2 3 4 5 6 7 8 9 10 11 12 13 14 15 16 17 18 19 20 21 22 23 24 25 26
000
FTUS41 KBUF 292100 AAA
TAFIAG
TAF AMD
KIAG 292116Z 2921/3018 22014G20KT P6SM SCT200
     FM292300 18010KT P6SM BKN150
     FM300300 20018G28KT 2SM -SHSN OVC040
     FM300500 22022G30KT P6SM VCSH OVC035
     FM300700 23024G32KT 3SM -SHRASN OVC025
     FM300900 26020G28KT P6SM VCSH OVC020=

USA.gov is the U.S. government's official web portal to all federal, state and local government web resources and services.